Lincoln, Nebraska
Current Conditions -  °F | °C
As of 3:54 PM on Friday 31 Oct 2014 (Local Time) from KLNK Reporting Station
Clear Clear  
Wind Chill:   Ceiling: Unl
Heat Index:   Visibility: 10mi
Dew Point: -9°   Wind: 6mph
Humidity: 31%   Direction: 360°N
Pressure: 30.51"   Gusts: NA
Location:  40.81°N, 96.71°W
Report Text: KLNK 312054Z 36005KT 10SM CLR 07/M09 A3051 RMK AO2 SLP338 T00721089 56023
Loading
Personal Weather Stations






























Interactive Weather Map New forecast layout! Learn more

10-Day Weather Forecast

Advertisements
Track Severe Weather on mobile